createdAt,value
2023-04-23T00:01:28.171Z,38.72
2023-04-23T00:03:58.919Z,40.42
2023-04-23T00:06:27.716Z,38.53
2023-04-23T00:08:56.198Z,40.08
2023-04-23T00:11:24.287Z,40.60
2023-04-23T00:13:52.837Z,40.22
2023-04-23T00:16:21.914Z,42.47
2023-04-23T00:18:51.300Z,40.95
2023-04-23T00:21:19.181Z,42.38
2023-04-23T00:23:47.614Z,45.17
2023-04-23T00:26:15.503Z,46.50
2023-04-23T00:28:43.493Z,46.28
2023-04-23T00:31:11.484Z,43.53
2023-04-23T00:33:39.602Z,46.58
2023-04-23T00:36:09.768Z,48.22
2023-04-23T00:38:37.689Z,49.97
2023-04-23T00:41:06.103Z,47.15
2023-04-23T00:43:34.829Z,47.60
2023-04-23T00:46:02.995Z,52.88
2023-04-23T00:48:31.269Z,46.85
2023-04-23T00:51:01.269Z,47.38
2023-04-23T00:53:31.232Z,49.80
2023-04-23T00:55:59.668Z,47.65
2023-04-23T00:58:27.986Z,51.72
2023-04-23T01:00:56.896Z,50.20
2023-04-23T01:03:26.457Z,52.00
2023-04-23T01:05:54.635Z,50.60
2023-04-23T01:08:25.722Z,48.70
2023-04-23T01:10:55.247Z,51.85
2023-04-23T01:13:26.573Z,52.53
2023-04-23T01:15:54.836Z,53.00
2023-04-23T01:18:23.120Z,55.67
2023-04-23T01:20:51.585Z,53.95
2023-04-23T01:23:21.140Z,58.42
2023-04-23T01:25:49.403Z,59.13
2023-04-23T01:28:17.526Z,58.05
2023-04-23T01:30:46.645Z,56.30
2023-04-23T01:33:15.166Z,59.65
2023-04-23T01:35:45.147Z,58.80
2023-04-23T01:38:15.390Z,58.45
2023-04-23T01:40:45.325Z,52.90
2023-04-23T01:43:13.519Z,50.50
2023-04-23T01:45:42.491Z,46.70
2023-04-23T01:48:11.119Z,47.33
2023-04-23T01:50:39.813Z,49.15
2023-04-23T01:53:07.710Z,48.50
2023-04-23T01:55:36.164Z,46.30
2023-04-23T01:58:05.826Z,44.03
2023-04-23T02:00:33.755Z,45.65
2023-04-23T02:03:01.980Z,40.45
2023-04-23T02:05:30.840Z,43.50
2023-04-23T02:07:58.745Z,42.55
2023-04-23T02:10:27.131Z,37.85
2023-04-23T02:12:55.388Z,37.15
2023-04-23T02:15:24.773Z,38.55
2023-04-23T02:17:53.308Z,34.47
2023-04-23T02:20:22.524Z,35.42
2023-04-23T02:22:51.554Z,32.20
2023-04-23T02:25:21.918Z,36.15
2023-04-23T02:27:50.611Z,34.55
2023-04-23T02:30:18.555Z,36.30
2023-04-23T02:32:47.990Z,37.67
2023-04-23T02:35:15.955Z,35.55
2023-04-23T02:37:43.870Z,34.65
2023-04-23T02:40:12.735Z,34.78
2023-04-23T02:42:43.239Z,34.35
2023-04-23T02:45:13.002Z,32.03
2023-04-23T02:47:41.193Z,32.92
2023-04-23T02:50:11.499Z,32.08
2023-04-23T02:52:39.443Z,31.23
2023-04-23T02:55:09.054Z,31.98
2023-04-23T02:57:37.557Z,31.95
2023-04-23T03:00:07.659Z,32.92
2023-04-23T03:02:41.298Z,33.97
2023-04-23T03:05:11.470Z,31.58
2023-04-23T03:07:39.621Z,30.00
2023-04-23T03:10:08.764Z,30.67
2023-04-23T03:12:37.068Z,30.77
2023-04-23T03:15:05.794Z,30.20
2023-04-23T03:17:35.993Z,29.92
2023-04-23T03:20:05.767Z,30.98
2023-04-23T03:22:47.344Z,31.13
2023-04-23T03:25:16.498Z,31.17
2023-04-23T03:27:44.578Z,28.85
2023-04-23T03:30:13.148Z,29.45
2023-04-23T03:32:41.555Z,31.88
2023-04-23T03:35:10.765Z,31.23
2023-04-23T03:37:44.063Z,30.20
2023-04-23T03:40:12.490Z,31.80
2023-04-23T03:42:42.300Z,31.45
2023-04-23T03:45:14.533Z,29.38
2023-04-23T03:47:42.564Z,28.65
2023-04-23T03:50:13.111Z,30.83
2023-04-23T03:52:43.809Z,37.80
2023-04-23T03:55:20.612Z,30.40
2023-04-23T03:57:48.761Z,30.33
2023-04-23T04:00:26.802Z,32.55
2023-04-23T04:02:55.214Z,32.00
2023-04-23T04:05:24.395Z,29.80
2023-04-23T04:07:56.080Z,28.58
2023-04-23T04:10:26.356Z,29.47
2023-04-23T04:12:55.280Z,26.23
2023-04-23T04:15:23.664Z,28.65
2023-04-23T04:17:51.511Z,28.08
2023-04-23T04:20:19.469Z,28.95
2023-04-23T04:22:47.451Z,28.33
2023-04-23T04:25:16.714Z,26.38
2023-04-23T04:27:44.558Z,28.15
2023-04-23T04:30:13.221Z,26.60
2023-04-23T04:32:42.241Z,26.52
2023-04-23T04:35:10.584Z,24.95
2023-04-23T04:37:38.410Z,25.75
2023-04-23T04:40:08.066Z,26.55
2023-04-23T04:42:37.305Z,25.42
2023-04-23T04:45:06.047Z,26.15
2023-04-23T04:47:33.856Z,24.20
2023-04-23T04:50:01.675Z,24.27
2023-04-23T04:52:29.480Z,25.63
2023-04-23T04:54:57.339Z,24.92
2023-04-23T04:57:25.231Z,24.23
2023-04-23T04:59:55.188Z,26.55
2023-04-23T05:02:23.492Z,23.00
2023-04-23T05:04:52.372Z,24.17
2023-04-23T05:07:20.251Z,24.98
2023-04-23T05:09:48.213Z,25.10
2023-04-23T05:12:16.153Z,23.75
2023-04-23T05:14:44.230Z,26.23
2023-04-23T05:17:13.608Z,24.33
2023-04-23T05:19:41.496Z,22.25
2023-04-23T05:22:09.493Z,22.30
2023-04-23T05:24:37.386Z,22.75
2023-04-23T05:27:05.255Z,21.13
2023-04-23T05:29:33.241Z,19.50
2023-04-23T05:32:01.173Z,20.00
2023-04-23T05:34:30.534Z,21.25
2023-04-23T05:36:58.504Z,22.00
2023-04-23T05:39:26.472Z,20.80
2023-04-23T05:41:54.605Z,20.60
2023-04-23T05:44:22.678Z,20.20
2023-04-23T05:46:50.552Z,19.63
2023-04-23T05:49:18.420Z,19.55
2023-04-23T05:51:47.771Z,20.48
2023-04-23T05:54:15.614Z,21.35
2023-04-23T05:56:43.514Z,20.27
2023-04-23T05:59:11.720Z,19.30
2023-04-23T06:01:39.682Z,19.58
2023-04-23T06:04:08.544Z,19.38
2023-04-23T06:06:36.594Z,19.00
2023-04-23T06:09:07.016Z,18.90
2023-04-23T06:11:36.207Z,18.25
2023-04-23T06:14:04.460Z,18.25
2023-04-23T06:16:32.473Z,18.70
2023-04-23T06:19:00.377Z,18.38
2023-04-23T06:21:28.425Z,16.95
2023-04-23T06:23:56.272Z,17.05
2023-04-23T06:26:25.629Z,15.77
2023-04-23T06:28:56.955Z,13.95
2023-04-23T06:31:30.768Z,13.88
2023-04-23T06:33:58.819Z,13.68
2023-04-23T06:36:26.675Z,13.18
2023-04-23T06:38:54.552Z,12.27
2023-04-23T06:41:22.582Z,11.48
2023-04-23T06:44:03.093Z,21.63
2023-04-23T06:46:37.278Z,13.15
2023-04-23T06:49:05.251Z,12.70
2023-04-23T06:51:33.242Z,12.55
2023-04-23T06:54:01.111Z,12.90
2023-04-23T06:56:29.042Z,12.60
2023-04-23T06:58:57.023Z,11.02
2023-04-23T07:01:26.540Z,11.32
2023-04-23T07:03:54.869Z,10.40
2023-04-23T07:06:22.897Z,10.30
2023-04-23T07:08:50.777Z,10.57
2023-04-23T07:11:18.789Z,10.07
2023-04-23T07:13:47.061Z,10.00
2023-04-23T07:16:15.267Z,8.50
2023-04-23T07:18:44.596Z,8.80
2023-04-23T07:21:12.428Z,10.90
2023-04-23T07:23:40.354Z,8.75
2023-04-23T07:26:08.284Z,8.38
2023-04-23T07:28:36.228Z,9.05
2023-04-23T07:31:04.338Z,7.97
2023-04-23T07:33:32.388Z,7.90
2023-04-23T07:36:01.657Z,7.20
2023-04-23T07:38:29.713Z,7.13
2023-04-23T07:40:57.616Z,7.20
2023-04-23T07:43:25.554Z,8.02
2023-04-23T07:45:53.746Z,7.43
2023-04-23T07:48:21.665Z,6.43
2023-04-23T07:50:49.750Z,6.53
2023-04-23T07:53:19.292Z,6.13
2023-04-23T07:55:47.115Z,6.60
2023-04-23T07:58:15.232Z,7.07
2023-04-23T08:00:51.193Z,8.82
2023-04-23T08:03:19.672Z,6.65
2023-04-23T08:05:47.891Z,5.80
2023-04-23T08:08:18.537Z,6.38
2023-04-23T08:10:47.935Z,6.75
2023-04-23T08:13:15.895Z,6.20
2023-04-23T08:15:43.861Z,5.25
2023-04-23T08:18:11.809Z,7.25
2023-04-23T08:20:39.715Z,6.35
2023-04-23T08:23:14.862Z,4.60
2023-04-23T08:25:43.182Z,4.97
2023-04-23T08:28:12.392Z,4.95
2023-04-23T08:30:40.296Z,5.40
2023-04-23T08:33:08.274Z,4.82
2023-04-23T08:35:36.217Z,5.28
2023-04-23T08:38:04.160Z,3.97
2023-04-23T08:40:34.096Z,6.63
2023-04-23T08:43:04.152Z,5.13
2023-04-23T08:45:41.513Z,6.32
2023-04-23T08:48:11.670Z,3.90
2023-04-23T08:50:43.337Z,5.90
2023-04-23T08:53:11.986Z,4.47
2023-04-23T08:55:40.056Z,4.10
2023-04-23T08:58:08.116Z,3.50
2023-04-23T09:00:37.917Z,4.40
2023-04-23T09:03:07.256Z,4.90
2023-04-23T09:05:35.523Z,5.05
2023-04-23T09:08:03.494Z,4.15
2023-04-23T09:10:31.330Z,3.70
2023-04-23T09:12:59.224Z,4.43
2023-04-23T09:15:27.155Z,3.70
2023-04-23T09:17:57.447Z,5.40
2023-04-23T09:20:25.935Z,3.95
2023-04-23T09:22:53.812Z,5.32
2023-04-23T09:25:23.653Z,4.68
2023-04-23T09:27:52.697Z,4.28
2023-04-23T09:30:21.463Z,3.47
2023-04-23T09:32:49.806Z,3.97
2023-04-23T09:35:20.804Z,5.32
2023-04-23T09:37:50.843Z,4.80
2023-04-23T09:40:20.691Z,3.95
2023-04-23T09:42:49.882Z,6.80
2023-04-23T09:45:18.262Z,4.50
2023-04-23T09:47:51.755Z,3.75
2023-04-23T09:50:21.512Z,2.53
2023-04-23T09:52:56.347Z,7.38
2023-04-23T09:55:30.950Z,4.43
2023-04-23T09:57:59.691Z,4.03
2023-04-23T10:00:30.658Z,2.65
2023-04-23T10:03:01.191Z,3.40
2023-04-23T10:05:40.659Z,3.28
2023-04-23T10:08:19.634Z,2.53
2023-04-23T10:10:59.612Z,4.72
2023-04-23T10:13:35.686Z,3.15
2023-04-23T10:16:20.706Z,2.63
2023-04-23T10:18:51.746Z,2.08
2023-04-23T10:21:21.978Z,2.72
2023-04-23T10:23:52.453Z,3.72
2023-04-23T10:26:22.967Z,2.20
2023-04-23T10:28:55.401Z,4.90
2023-04-23T10:31:24.679Z,3.40
2023-04-23T10:33:58.999Z,3.60
2023-04-23T10:36:29.733Z,3.00
2023-04-23T10:39:01.416Z,3.80
2023-04-23T10:41:40.008Z,4.75
2023-04-23T10:44:08.184Z,1.95
2023-04-23T10:46:39.529Z,1.85
2023-04-23T10:49:14.420Z,2.65
2023-04-23T10:54:20.801Z,3.83
2023-04-23T10:56:59.974Z,3.50
2023-04-23T10:59:30.182Z,1.63
2023-04-23T11:02:02.217Z,3.33
2023-04-23T11:04:31.705Z,1.95
2023-04-23T11:07:06.493Z,3.00
2023-04-23T11:09:42.975Z,2.42
2023-04-23T11:12:15.349Z,2.67
2023-04-23T11:14:48.094Z,1.95
2023-04-23T11:17:18.330Z,3.25
2023-04-23T11:20:10.284Z,2.13
2023-04-23T11:22:40.795Z,1.17
2023-04-23T11:25:11.164Z,3.88
2023-04-23T11:27:40.596Z,1.38
2023-04-23T11:30:13.489Z,1.83
2023-04-23T11:32:42.182Z,2.30
2023-04-23T11:35:13.743Z,2.88
2023-04-23T11:37:45.252Z,1.67
2023-04-23T11:40:19.022Z,2.60
2023-04-23T11:42:49.362Z,5.05
2023-04-23T11:45:21.218Z,3.15
2023-04-23T11:47:53.561Z,2.47
2023-04-23T11:50:23.078Z,2.15
2023-04-23T11:52:52.797Z,1.48
2023-04-23T11:55:21.646Z,2.70
2023-04-23T11:57:52.255Z,1.98
2023-04-23T12:00:22.196Z,2.03
2023-04-23T12:02:54.724Z,1.33
2023-04-23T12:05:23.863Z,3.38
2023-04-23T12:07:53.476Z,1.60
2023-04-23T12:10:22.588Z,2.05
2023-04-23T12:12:52.390Z,1.27
2023-04-23T12:15:20.747Z,1.92
2023-04-23T12:17:52.797Z,1.92
2023-04-23T12:20:22.250Z,1.10
2023-04-23T12:22:50.517Z,1.38
2023-04-23T12:25:23.554Z,2.08
2023-04-23T12:27:51.467Z,1.50
2023-04-23T12:30:19.369Z,3.53
2023-04-23T12:32:47.261Z,1.40
2023-04-23T12:35:15.242Z,2.90
2023-04-23T12:37:43.189Z,1.75
2023-04-23T12:40:12.042Z,2.25
2023-04-23T12:42:41.694Z,3.45
2023-04-23T12:45:11.104Z,2.35
2023-04-23T12:47:39.131Z,1.80
2023-04-23T12:50:08.495Z,2.30
2023-04-23T12:52:36.484Z,1.13
2023-04-23T12:55:05.146Z,1.23
2023-04-23T12:57:33.258Z,2.00
2023-04-23T13:00:02.531Z,0.57
2023-04-23T13:02:30.839Z,2.45
2023-04-23T13:05:01.155Z,1.42
2023-04-23T13:07:29.491Z,1.80
2023-04-23T13:09:59.456Z,1.20
2023-04-23T13:12:27.467Z,1.17
2023-04-23T13:14:55.482Z,1.50
2023-04-23T13:17:26.272Z,1.13
2023-04-23T13:19:54.564Z,2.75
2023-04-23T13:22:23.115Z,1.17
2023-04-23T13:24:51.083Z,2.28
2023-04-23T13:27:19.037Z,1.38
2023-04-23T13:29:46.956Z,2.53
2023-04-23T13:32:16.304Z,2.95
2023-04-23T13:34:45.615Z,1.90
2023-04-23T13:37:13.472Z,1.25
2023-04-23T13:39:41.922Z,4.13
2023-04-23T13:42:10.407Z,4.20
2023-04-23T13:44:38.720Z,2.53
2023-04-23T13:47:06.864Z,1.70
2023-04-23T13:49:34.850Z,2.10
2023-04-23T13:52:06.437Z,2.03
2023-04-23T13:54:35.505Z,2.17
2023-04-23T13:57:03.608Z,1.90
2023-04-23T13:59:31.459Z,2.00
2023-04-23T14:01:59.468Z,2.67
2023-04-23T14:04:27.447Z,2.03
2023-04-23T14:06:55.486Z,2.17
2023-04-23T14:09:25.204Z,1.70
2023-04-23T14:11:53.327Z,1.65
2023-04-23T14:14:21.316Z,1.90
2023-04-23T14:16:49.257Z,1.85
2023-04-23T14:19:17.197Z,1.98
2023-04-23T14:21:46.169Z,2.38
2023-04-23T14:24:20.601Z,2.25
2023-04-23T14:26:50.308Z,2.67
2023-04-23T14:29:26.289Z,2.90
2023-04-23T14:31:54.656Z,2.55
2023-04-23T14:34:22.718Z,1.63
2023-04-23T14:36:52.998Z,1.17
2023-04-23T14:39:23.079Z,0.85
2023-04-23T14:41:52.337Z,1.00
2023-04-23T14:44:21.013Z,1.38
2023-04-23T14:46:51.053Z,2.33
2023-04-23T14:49:19.052Z,4.55
2023-04-23T14:51:47.086Z,1.15
2023-04-23T14:54:14.953Z,1.85
2023-04-23T14:56:43.098Z,3.47
2023-04-23T14:59:12.593Z,1.67
2023-04-23T15:01:40.822Z,1.13
2023-04-23T15:04:08.887Z,1.38
2023-04-23T15:06:37.168Z,2.35
2023-04-23T15:09:05.803Z,1.35
2023-04-23T15:11:34.052Z,1.25
2023-04-23T15:14:07.471Z,1.67
2023-04-23T15:16:47.374Z,2.92
2023-04-23T15:19:18.365Z,1.98
2023-04-23T15:21:47.274Z,1.83
2023-04-23T15:24:15.553Z,2.17
2023-04-23T15:26:46.010Z,1.80
2023-04-23T15:29:14.485Z,1.08
2023-04-23T15:31:43.777Z,2.47
2023-04-23T15:34:12.262Z,1.85
2023-04-23T15:36:40.400Z,2.75
2023-04-23T15:39:09.163Z,1.73
2023-04-23T15:41:40.249Z,2.67
2023-04-23T15:44:10.793Z,1.38
2023-04-23T15:46:38.826Z,2.72
2023-04-23T15:49:08.320Z,1.58
2023-04-23T15:51:37.118Z,2.95
2023-04-23T15:54:08.622Z,2.08
2023-04-23T15:56:37.340Z,2.55
2023-04-23T15:59:05.409Z,3.90
2023-04-23T16:01:33.665Z,3.88
2023-04-23T16:06:33.892Z,2.25
2023-04-23T16:09:03.470Z,1.67
2023-04-23T16:11:31.488Z,1.60
2023-04-23T16:13:59.441Z,2.00
2023-04-23T16:16:27.478Z,1.40
2023-04-23T16:18:57.122Z,1.88
2023-04-23T16:21:25.837Z,1.45
2023-04-23T16:23:55.070Z,1.85
2023-04-23T16:26:23.060Z,1.75
2023-04-23T16:28:56.353Z,1.17
2023-04-23T16:31:29.149Z,1.50
2023-04-23T16:33:57.467Z,1.23
2023-04-23T16:36:25.433Z,1.63
2023-04-23T16:38:53.496Z,0.98
2023-04-23T16:41:22.991Z,1.70
2023-04-23T16:43:50.998Z,1.20
2023-04-23T16:46:19.096Z,0.75
2023-04-23T16:48:47.367Z,1.08
2023-04-23T16:51:15.436Z,1.65
2023-04-23T16:53:43.301Z,1.90
2023-04-23T16:56:11.414Z,0.90
2023-04-23T16:58:40.957Z,1.00
2023-04-23T17:01:08.963Z,1.52
2023-04-23T17:03:37.145Z,0.77
2023-04-23T17:06:13.258Z,1.13
2023-04-23T17:08:41.508Z,1.27
2023-04-23T17:11:09.400Z,0.85
2023-04-23T17:13:37.427Z,1.40
2023-04-23T17:16:06.866Z,1.52
2023-04-23T17:18:34.700Z,1.15
2023-04-23T17:21:02.632Z,1.60
2023-04-23T17:23:30.635Z,0.90
2023-04-23T17:25:58.507Z,1.40
2023-04-23T17:28:26.553Z,1.13
2023-04-23T17:30:55.886Z,1.17
2023-04-23T17:33:26.194Z,1.42
2023-04-23T17:35:55.327Z,1.58
2023-04-23T17:38:24.708Z,2.70
2023-04-23T17:40:53.693Z,2.35
2023-04-23T17:43:22.365Z,1.83
2023-04-23T17:45:53.828Z,8.43
2023-04-23T17:48:23.072Z,3.45
2023-04-23T17:50:54.509Z,3.13
2023-04-23T17:53:22.498Z,2.28
2023-04-23T17:55:50.450Z,3.88
2023-04-23T17:58:19.333Z,2.13
2023-04-23T18:00:47.479Z,2.13
2023-04-23T18:03:18.734Z,4.20
2023-04-23T18:05:46.916Z,2.75
2023-04-23T18:08:19.377Z,3.17
2023-04-23T18:10:47.408Z,4.00
2023-04-23T18:13:15.405Z,4.72
2023-04-23T18:15:45.723Z,2.60
2023-04-23T18:18:13.598Z,3.38
2023-04-23T18:20:41.507Z,3.22
2023-04-23T18:23:10.340Z,2.40
2023-04-23T18:25:39.750Z,3.80
2023-04-23T18:28:07.622Z,4.32
2023-04-23T18:30:38.044Z,2.38
2023-04-23T18:33:12.052Z,1.85
2023-04-23T18:35:43.709Z,2.95
2023-04-23T18:38:24.337Z,2.80
2023-04-23T18:40:53.780Z,2.35
2023-04-23T18:43:24.786Z,2.25
2023-04-23T18:45:52.906Z,2.05
2023-04-23T18:48:47.450Z,1.77
2023-04-23T18:51:21.323Z,2.13
2023-04-23T18:53:49.547Z,2.80
2023-04-23T18:56:18.835Z,1.92
2023-04-23T18:58:46.777Z,2.72
2023-04-23T19:01:15.151Z,1.58
2023-04-23T19:03:43.460Z,2.45
2023-04-23T19:06:11.438Z,1.58
2023-04-23T19:08:39.394Z,2.25
2023-04-23T19:11:07.787Z,1.40
2023-04-23T19:13:37.078Z,1.63
2023-04-23T19:16:05.075Z,0.95
2023-04-23T19:18:33.164Z,2.53
2023-04-23T19:21:01.103Z,1.02
2023-04-23T19:23:28.997Z,2.20
2023-04-23T19:25:57.283Z,1.08
2023-04-23T19:28:25.684Z,1.15
2023-04-23T19:30:55.062Z,1.70
2023-04-23T19:33:23.774Z,0.80
2023-04-23T19:35:52.347Z,1.10
2023-04-23T19:38:20.367Z,1.15
2023-04-23T19:40:48.529Z,2.50
2023-04-23T19:43:16.426Z,1.10
2023-04-23T19:45:44.384Z,1.50
2023-04-23T19:48:13.943Z,0.95
2023-04-23T19:50:43.435Z,1.90
2023-04-23T19:53:11.420Z,1.80
2023-04-23T19:55:39.305Z,1.25
2023-04-23T19:58:07.216Z,1.63
2023-04-23T20:00:39.677Z,2.05
2023-04-23T20:03:08.875Z,1.30
2023-04-23T20:05:38.826Z,0.95
2023-04-23T20:08:11.160Z,2.30
2023-04-23T20:10:39.385Z,1.83
2023-04-23T20:13:07.231Z,3.17
2023-04-23T20:15:35.198Z,2.78
2023-04-23T20:18:03.302Z,1.08
2023-04-23T20:20:31.240Z,2.22
2023-04-23T20:23:00.789Z,1.30
2023-04-23T20:25:28.907Z,1.05
2023-04-23T20:28:00.094Z,1.30
2023-04-23T20:30:30.713Z,0.82
2023-04-23T20:33:08.931Z,1.08
2023-04-23T20:35:36.878Z,3.67
2023-04-23T20:38:06.479Z,0.80
2023-04-23T20:40:34.745Z,1.02
2023-04-23T20:43:04.603Z,1.48
2023-04-23T20:45:34.519Z,1.33
2023-04-23T20:48:03.830Z,0.90
2023-04-23T20:50:32.366Z,0.85
2023-04-23T20:53:00.391Z,2.70
2023-04-23T20:55:29.743Z,1.52
2023-04-23T20:57:57.821Z,1.92
2023-04-23T21:00:25.860Z,2.40
2023-04-23T21:02:54.011Z,3.00
2023-04-23T21:05:22.540Z,2.42
2023-04-23T21:07:50.800Z,1.90
2023-04-23T21:10:19.149Z,1.15
2023-04-23T21:12:48.734Z,0.88
2023-04-23T21:15:17.260Z,1.05
2023-04-23T21:17:45.319Z,2.25
2023-04-23T21:20:13.486Z,0.82
2023-04-23T21:22:41.570Z,1.85
2023-04-23T21:25:09.907Z,1.55
2023-04-23T21:27:38.123Z,0.50
2023-04-23T21:30:15.168Z,0.60
2023-04-23T21:32:43.279Z,0.68
2023-04-23T21:35:11.598Z,1.52
2023-04-23T21:37:39.485Z,1.20
2023-04-23T21:40:10.482Z,1.05
2023-04-23T21:42:38.626Z,1.13
2023-04-23T21:45:09.109Z,0.80
2023-04-23T21:47:37.268Z,0.60
2023-04-23T21:50:06.654Z,0.70
2023-04-23T21:52:34.620Z,0.30
2023-04-23T21:55:02.957Z,0.90
2023-04-23T21:57:30.993Z,3.17
2023-04-23T21:59:59.043Z,0.93
2023-04-23T22:02:28.690Z,1.00
2023-04-23T22:04:56.778Z,0.60
2023-04-23T22:07:26.797Z,0.70
2023-04-23T22:09:57.100Z,0.52
2023-04-23T22:12:25.008Z,2.75
2023-04-23T22:14:52.889Z,1.38
2023-04-23T22:17:21.984Z,0.82
2023-04-23T22:19:52.112Z,0.80
2023-04-23T22:22:19.982Z,0.52
2023-04-23T22:24:47.883Z,1.88
2023-04-23T22:27:15.923Z,0.73
2023-04-23T22:29:44.044Z,0.65
2023-04-23T22:32:12.252Z,0.30
2023-04-23T22:34:40.539Z,0.65
2023-04-23T22:37:09.996Z,0.32
2023-04-23T22:39:37.926Z,0.57
2023-04-23T22:42:06.162Z,1.20
2023-04-23T22:44:34.032Z,0.35
2023-04-23T22:47:01.905Z,1.33
2023-04-23T22:49:29.755Z,1.30
2023-04-23T22:51:57.690Z,0.40
2023-04-23T22:54:27.078Z,1.23
2023-04-23T22:56:55.003Z,1.05
2023-04-23T22:59:23.130Z,0.85
2023-04-23T23:01:51.184Z,1.33
2023-04-23T23:04:19.233Z,1.45
2023-04-23T23:06:47.106Z,0.85
2023-04-23T23:09:15.194Z,0.45
2023-04-23T23:11:44.556Z,0.50
2023-04-23T23:14:12.911Z,0.85
2023-04-23T23:16:41.021Z,0.43
2023-04-23T23:19:09.210Z,0.77
2023-04-23T23:21:37.116Z,0.40
2023-04-23T23:24:06.019Z,1.05
2023-04-23T23:26:33.943Z,0.50
2023-04-23T23:29:03.429Z,1.05
2023-04-23T23:31:32.307Z,0.50
2023-04-23T23:34:00.204Z,0.77
2023-04-23T23:36:28.147Z,1.05
2023-04-23T23:38:56.043Z,1.00
2023-04-23T23:41:23.917Z,1.85
2023-04-23T23:43:51.757Z,2.38
2023-04-23T23:46:21.202Z,0.80
2023-04-23T23:48:49.160Z,1.52
2023-04-23T23:51:17.178Z,2.95
2023-04-23T23:53:45.113Z,0.38
2023-04-23T23:56:13.049Z,1.27
2023-04-23T23:58:40.959Z,1.00
